Time;durP1;ratioP1;P1;durP2;ratioP2;P2;SDS_P1;SDS_P2;PMS_P1;PMS_P2;Temp;Humidity;BMP_temperature;BMP_pressure;BME280_temperature;BME280_humidity;BME280_pressure;Samples;Min_cycle;Max_cycle;Signal;HPM_P1;HPM_P2
2020/12/16 00:00:25;;;;;;;44.33;27.48;;;6.50;87.30;;;;;;2082627;28;20040;-77
2020/12/16 00:01:26;;;;;;;41.70;26.58;;;6.50;87.50;;;;;;2082485;28;20079;-75
2020/12/16 00:02:27;;;;;;;46.72;28.88;;;6.50;87.50;;;;;;2074291;28;20153;-77
2020/12/16 00:03:27;;;;;;;44.17;27.73;;;6.50;87.50;;;;;;2074575;28;20030;-77
2020/12/16 00:04:28;;;;;;;44.22;27.48;;;6.50;87.40;;;;;;2074755;28;20029;-76
2020/12/16 00:05:29;;;;;;;41.55;25.50;;;6.50;87.40;;;;;;2073787;28;20524;-76
2020/12/16 00:06:30;;;;;;;39.15;24.48;;;6.50;87.40;;;;;;2073990;28;20034;-76
2020/12/16 00:07:30;;;;;;;36.20;23.55;;;6.60;87.50;;;;;;2073378;28;20140;-77
2020/12/16 00:08:31;;;;;;;41.78;25.50;;;6.50;87.40;;;;;;2073610;28;20026;-77
2020/12/16 00:09:32;;;;;;;38.70;24.52;;;6.50;87.40;;;;;;2073309;28;20746;-77
2020/12/16 00:10:32;;;;;;;39.35;25.13;;;6.60;87.40;;;;;;2074199;28;20517;-76
2020/12/16 00:11:34;;;;;;;39.97;25.67;;;6.50;87.40;;;;;;2074180;28;20034;-77
2020/12/16 00:12:42;;;;;;;48.53;29.80;;;6.50;87.50;;;;;;2074678;28;20041;-77
2020/12/16 00:13:42;;;;;;;41.20;26.02;;;6.60;87.60;;;;;;2073699;28;20041;-77
2020/12/16 00:14:44;;;;;;;40.72;26.65;;;6.50;87.60;;;;;;2065485;28;20030;-76
2020/12/16 00:15:45;;;;;;;50.03;31.23;;;6.60;87.40;;;;;;2073636;28;20026;-77
2020/12/16 00:16:46;;;;;;;45.67;28.38;;;6.60;87.20;;;;;;2074041;28;20038;-76
2020/12/16 00:17:49;;;;;;;57.47;35.40;;;6.60;87.50;;;;;;2074164;28;20110;-77
2020/12/16 00:18:50;;;;;;;44.22;27.67;;;6.60;87.50;;;;;;2074070;28;20057;-76
2020/12/16 00:19:50;;;;;;;41.85;26.60;;;6.50;87.40;;;;;;2073814;28;20033;-76
2020/12/16 00:20:51;;;;;;;40.17;25.88;;;6.50;87.60;;;;;;2073930;28;20029;-75
2020/12/16 00:21:52;;;;;;;50.60;30.50;;;6.50;87.60;;;;;;2074234;28;20030;-76
2020/12/16 00:22:53;;;;;;;42.22;26.60;;;6.50;87.50;;;;;;2074063;28;20021;-78
2020/12/16 00:23:53;;;;;;;40.38;26.10;;;6.60;87.60;;;;;;2066487;28;20027;-76
2020/12/16 00:24:54;;;;;;;42.75;26.60;;;6.50;87.70;;;;;;2066035;28;20035;-78
2020/12/16 00:25:54;;;;;;;42.70;27.25;;;6.50;87.70;;;;;;2074479;28;20132;-76
2020/12/16 00:26:55;;;;;;;43.25;27.90;;;6.50;87.80;;;;;;2074357;28;20371;-77
2020/12/16 00:27:56;;;;;;;42.97;27.13;;;6.50;87.90;;;;;;2075052;28;20097;-78
2020/12/16 00:28:57;;;;;;;43.22;26.70;;;6.50;88.00;;;;;;2074260;28;20121;-77
2020/12/16 00:29:57;;;;;;;41.22;26.27;;;6.60;87.90;;;;;;2074516;28;20034;-77
2020/12/16 00:30:59;;;;;;;41.95;26.50;;;6.50;87.80;;;;;;2074119;28;20064;-77
2020/12/16 00:31:59;;;;;;;41.42;26.98;;;6.60;87.90;;;;;;2073510;28;20034;-78
2020/12/16 00:33:00;;;;;;;41.05;26.25;;;6.60;87.70;;;;;;2075299;28;20103;-76
2020/12/16 00:34:01;;;;;;;42.00;25.85;;;6.60;87.60;;;;;;2065793;28;20022;-78
2020/12/16 00:35:03;;;;;;;48.05;29.73;;;6.60;87.70;;;;;;2065418;28;20022;-74
2020/12/16 00:36:03;;;;;;;45.65;27.83;;;6.60;87.50;;;;;;2073333;28;20116;-77
2020/12/16 00:37:04;;;;;;;41.85;27.27;;;6.60;87.60;;;;;;2073675;28;20069;-75
2020/12/16 00:38:04;;;;;;;40.47;26.20;;;6.60;87.70;;;;;;2074061;28;20033;-77
2020/12/16 00:39:07;;;;;;;43.60;26.98;;;6.60;87.80;;;;;;2073248;28;20032;-77
2020/12/16 00:40:09;;;;;;;41.85;26.83;;;6.60;87.70;;;;;;2073624;28;20057;-76
2020/12/16 00:41:10;;;;;;;40.45;26.63;;;6.50;87.80;;;;;;2074013;28;20087;-76
2020/12/16 00:42:11;;;;;;;42.25;26.70;;;6.60;87.90;;;;;;2064810;28;20081;-77
2020/12/16 00:43:11;;;;;;;40.95;26.50;;;6.60;87.80;;;;;;2057263;28;20030;-77
2020/12/16 00:44:12;;;;;;;42.28;27.17;;;6.60;87.90;;;;;;2057228;28;20035;-77
2020/12/16 00:45:13;;;;;;;44.28;27.90;;;6.60;87.80;;;;;;2073538;28;20038;-76
2020/12/16 00:46:14;;;;;;;46.38;28.90;;;6.50;87.70;;;;;;2073536;28;20030;-77
2020/12/16 00:47:15;;;;;;;41.58;27.02;;;6.50;87.70;;;;;;2082037;28;20341;-78
2020/12/16 00:48:15;;;;;;;43.45;27.73;;;6.50;87.80;;;;;;2073515;28;20515;-76
2020/12/16 00:49:16;;;;;;;44.90;27.63;;;6.50;87.80;;;;;;2073937;28;20057;-75
2020/12/16 00:50:17;;;;;;;43.40;27.08;;;6.50;87.90;;;;;;2073154;28;20057;-76
2020/12/16 00:51:18;;;;;;;45.65;28.88;;;6.50;87.90;;;;;;2065015;28;20030;-77
2020/12/16 00:52:19;;;;;;;44.13;28.67;;;6.50;87.90;;;;;;2064947;28;20026;-77
2020/12/16 00:53:20;;;;;;;42.83;27.58;;;6.50;87.70;;;;;;2073167;28;20084;-76
2020/12/16 00:54:26;;;;;;;43.70;27.85;;;6.50;87.70;;;;;;2073593;28;20342;-76
2020/12/16 00:55:26;;;;;;;42.40;27.90;;;6.50;87.70;;;;;;2073750;28;20030;-77
2020/12/16 00:56:27;;;;;;;45.00;28.00;;;6.50;87.60;;;;;;2073496;28;20096;-76
2020/12/16 00:57:28;;;;;;;42.53;27.00;;;6.50;87.60;;;;;;2059420;28;20027;-78
2020/12/16 00:58:29;;;;;;;41.63;26.52;;;6.50;87.60;;;;;;2057022;28;20031;-78
2020/12/16 00:59:30;;;;;;;43.28;26.73;;;6.50;87.70;;;;;;2065691;28;20054;-77
2020/12/16 01:00:30;;;;;;;39.03;25.35;;;6.50;87.80;;;;;;2064691;28;20889;-76
2020/12/16 01:01:38;;;;;;;41.95;27.20;;;6.50;87.80;;;;;;2065284;28;20121;-75
2020/12/16 01:02:40;;;;;;;43.05;27.45;;;6.50;87.80;;;;;;2073472;28;20022;-77
2020/12/16 01:03:42;;;;;;;45.67;28.88;;;6.50;87.80;;;;;;2057559;28;20027;-77
2020/12/16 01:04:43;;;;;;;45.97;28.65;;;6.50;87.60;;;;;;2049729;28;20055;-78
2020/12/16 01:05:44;;;;;;;43.38;28.13;;;6.50;87.60;;;;;;2057345;28;20453;-76
2020/12/16 01:06:45;;;;;;;45.13;28.88;;;6.50;87.70;;;;;;2057277;28;20110;-78
2020/12/16 01:07:49;;;;;;;47.08;29.58;;;6.50;87.80;;;;;;2064518;28;20034;-77
2020/12/16 01:08:50;;;;;;;45.17;29.15;;;6.40;87.90;;;;;;2065623;28;20019;-76
2020/12/16 01:09:50;;;;;;;46.75;29.38;;;6.40;88.00;;;;;;2073019;28;20112;-76
2020/12/16 01:10:52;;;;;;;44.13;28.83;;;6.40;88.00;;;;;;2073212;28;20170;-76
2020/12/16 01:11:53;;;;;;;45.13;28.52;;;6.40;88.00;;;;;;2064991;28;20228;-76
2020/12/16 01:12:54;;;;;;;44.88;28.88;;;6.40;88.10;;;;;;2065060;28;20037;-76
2020/12/16 01:13:58;;;;;;;43.35;27.88;;;6.40;88.20;;;;;;2065103;28;20034;-76
2020/12/16 01:14:59;;;;;;;42.67;26.77;;;6.40;89.10;;;;;;2064871;28;20714;-76
2020/12/16 01:15:59;;;;;;;46.53;28.63;;;6.40;88.40;;;;;;2065730;28;20037;-78
2020/12/16 01:17:00;;;;;;;43.40;28.50;;;6.40;89.10;;;;;;2065774;28;20029;-76
2020/12/16 01:18:06;;;;;;;43.17;27.70;;;6.40;88.20;;;;;;2065644;28;20030;-76
2020/12/16 01:19:10;;;;;;;46.75;29.15;;;6.50;88.40;;;;;;2065093;28;20034;-77
2020/12/16 01:20:17;;;;;;;45.53;28.27;;;6.50;88.20;;;;;;2065309;28;20022;-76
2020/12/16 01:21:17;;;;;;;47.47;29.40;;;6.50;88.10;;;;;;2066355;28;20029;-77
2020/12/16 01:22:24;;;;;;;46.25;28.70;;;6.50;88.00;;;;;;2072922;28;20030;-77
2020/12/16 01:23:25;;;;;;;44.17;28.08;;;6.40;87.90;;;;;;2065202;28;20506;-77
2020/12/16 01:24:26;;;;;;;46.83;29.52;;;6.50;88.10;;;;;;2064780;28;20030;-77
2020/12/16 01:25:29;;;;;;;45.63;29.10;;;6.50;88.10;;;;;;2064654;28;20038;-77
2020/12/16 01:26:47;;;;;;;47.60;29.40;;;6.50;88.20;;;;;;2049564;28;20031;-77
2020/12/16 01:27:57;;;;;;;48.20;29.80;;;6.50;88.20;;;;;;2060849;28;20023;-77
2020/12/16 01:28:58;;;;;;;47.08;29.23;;;6.40;88.30;;;;;;2072952;28;20041;-77
2020/12/16 01:30:00;;;;;;;43.25;27.92;;;6.40;88.30;;;;;;2066206;28;20026;-78
2020/12/16 01:31:00;;;;;;;47.40;30.05;;;6.40;88.40;;;;;;2057466;28;20074;-76
2020/12/16 01:32:02;;;;;;;48.03;30.50;;;6.40;88.20;;;;;;2065909;28;20026;-78
2020/12/16 01:33:08;;;;;;;49.33;30.30;;;6.40;88.30;;;;;;2074465;28;20022;-78
2020/12/16 01:34:09;;;;;;;45.15;28.95;;;6.40;88.60;;;;;;2057793;28;20026;-77
2020/12/16 01:35:16;;;;;;;43.38;27.85;;;6.40;88.60;;;;;;2058476;28;20400;-78
2020/12/16 01:36:17;;;;;;;48.28;29.25;;;6.40;88.60;;;;;;2065407;28;20601;-78
2020/12/16 01:37:18;;;;;;;47.72;28.70;;;6.40;88.60;;;;;;2064840;28;20024;-76
2020/12/16 01:38:25;;;;;;;45.58;29.38;;;6.40;88.60;;;;;;2057907;28;20510;-77
2020/12/16 01:39:28;;;;;;;42.35;28.05;;;6.40;88.50;;;;;;2057437;28;20038;-77
2020/12/16 01:40:28;;;;;;;45.88;28.35;;;6.40;88.50;;;;;;2064413;28;20118;-78
2020/12/16 01:41:30;;;;;;;42.90;27.70;;;6.50;88.50;;;;;;2072180;28;20674;-77
2020/12/16 01:42:31;;;;;;;47.67;29.05;;;6.40;88.40;;;;;;2072152;28;20050;-78
2020/12/16 01:43:36;;;;;;;45.88;29.05;;;6.50;88.50;;;;;;2056522;28;20048;-76
2020/12/16 01:44:37;;;;;;;45.72;28.75;;;6.50;88.40;;;;;;2050024;28;20035;-77
2020/12/16 01:45:41;;;;;;;43.55;27.88;;;6.50;88.30;;;;;;2063878;28;20134;-77
2020/12/16 01:46:54;;;;;;;47.20;29.73;;;6.50;88.30;;;;;;2064598;28;20034;-78
2020/12/16 01:47:59;;;;;;;45.25;28.98;;;6.50;88.20;;;;;;2058948;28;20030;-77
2020/12/16 01:49:00;;;;;;;51.50;30.60;;;6.50;88.10;;;;;;2056728;28;20102;-75
2020/12/16 01:50:02;;;;;;;45.53;28.75;;;6.50;88.10;;;;;;2064667;28;20476;-78
2020/12/16 01:51:04;;;;;;;46.05;28.65;;;6.50;88.10;;;;;;2056975;28;20638;-76
2020/12/16 01:52:06;;;;;;;48.42;30.35;;;6.50;88.10;;;;;;2056694;28;20542;-76
2020/12/16 01:53:12;;;;;;;44.70;28.15;;;6.50;88.10;;;;;;2064791;28;20046;-77
2020/12/16 01:54:21;;;;;;;48.42;30.67;;;6.50;88.20;;;;;;2057414;28;20060;-77
2020/12/16 01:55:25;;;;;;;53.65;31.45;;;6.50;88.40;;;;;;2064798;28;20822;-79
2020/12/16 01:56:40;;;;;;;49.22;30.48;;;6.50;88.40;;;;;;2064435;28;20109;-78
2020/12/16 01:57:58;;;;;;;48.00;30.02;;;6.50;88.40;;;;;;2058658;28;20655;-76
2020/12/16 01:59:04;;;;;;;47.28;30.83;;;6.50;88.50;;;;;;2058574;28;20548;-78
2020/12/16 02:00:09;;;;;;;51.20;31.77;;;6.50;88.50;;;;;;2057717;28;20470;-78
2020/12/16 02:01:20;;;;;;;48.17;30.27;;;6.40;88.30;;;;;;2065973;28;20048;-80
2020/12/16 02:02:24;;;;;;;46.90;29.85;;;6.50;88.50;;;;;;2066172;28;20014;-79
2020/12/16 02:03:25;;;;;;;45.40;29.48;;;6.50;88.60;;;;;;2065612;28;20018;-79
2020/12/16 02:04:58;;;;;;;45.60;28.35;;;6.50;88.70;;;;;;2057426;28;20114;-78
2020/12/16 02:06:02;;;;;;;49.10;29.83;;;6.50;88.80;;;;;;2064727;28;20521;-78
2020/12/16 02:07:08;;;;;;;51.80;33.13;;;6.50;88.90;;;;;;2064951;28;20030;-77
2020/12/16 02:08:09;;;;;;;51.58;31.30;;;6.50;88.80;;;;;;2066016;28;20023;-78
2020/12/16 02:09:14;;;;;;;49.20;31.08;;;6.50;88.70;;;;;;2065138;28;20126;-78
2020/12/16 02:10:24;;;;;;;49.75;30.25;;;6.50;88.70;;;;;;2058582;28;20572;-78
2020/12/16 02:11:28;;;;;;;50.20;32.03;;;6.50;88.70;;;;;;2057092;28;20047;-78
2020/12/16 02:12:35;;;;;;;52.42;32.08;;;6.50;88.70;;;;;;2058192;28;20023;-78
2020/12/16 02:13:37;;;;;;;52.00;32.13;;;6.50;88.80;;;;;;2057550;28;20086;-78
2020/12/16 02:14:39;;;;;;;48.70;30.20;;;6.50;88.90;;;;;;2058510;28;20394;-78
2020/12/16 02:15:40;;;;;;;49.25;30.98;;;6.50;88.90;;;;;;2065224;28;20449;-77
2020/12/16 02:16:43;;;;;;;50.33;31.60;;;6.50;89.00;;;;;;2057758;28;20521;-78
2020/12/16 02:17:43;;;;;;;51.53;32.33;;;6.50;89.00;;;;;;2048677;28;20038;-78
2020/12/16 02:18:47;;;;;;;50.63;31.83;;;6.50;89.10;;;;;;2056868;28;20030;-78
2020/12/16 02:19:58;;;;;;;48.67;30.67;;;6.40;89.10;;;;;;2066034;28;20026;-78
2020/12/16 02:21:01;;;;;;;52.28;32.80;;;6.50;89.30;;;;;;2065224;28;20084;-78
2020/12/16 02:22:03;;;;;;;50.97;31.52;;;6.40;89.30;;;;;;2065158;28;20027;-80
2020/12/16 02:23:08;;;;;;;53.75;31.75;;;6.40;89.30;;;;;;2060081;28;20038;-79
2020/12/16 02:24:16;;;;;;;51.80;32.28;;;6.40;89.40;;;;;;2051946;28;20020;-79
2020/12/16 02:25:19;;;;;;;51.97;32.50;;;6.40;89.40;;;;;;2059648;28;20486;-79
2020/12/16 02:26:37;;;;;;;54.38;32.05;;;6.40;89.50;;;;;;2058938;28;20042;-77
2020/12/16 02:27:41;;;;;;;;;;;6.40;89.60;;;;;;2066576;28;20022;-78
2020/12/16 02:28:51;;;;;;;53.42;31.40;;;6.40;89.70;;;;;;2067195;28;19921;-79
2020/12/16 02:29:54;;;;;;;50.13;31.50;;;6.40;89.70;;;;;;2061749;28;20018;-79
2020/12/16 02:31:14;;;;;;;50.42;30.67;;;6.40;89.70;;;;;;2065556;28;20011;-80
2020/12/16 02:32:35;;;;;;;49.33;30.13;;;6.40;89.60;;;;;;2064453;28;20393;-78
2020/12/16 02:33:36;;;;;;;48.80;29.95;;;6.50;89.80;;;;;;2058429;28;20158;-78
2020/12/16 02:34:52;;;;;;;47.45;29.83;;;6.50;89.70;;;;;;2060550;28;20054;-77
2020/12/16 02:35:52;;;;;;;52.75;32.67;;;6.50;89.90;;;;;;2065638;28;20018;-77
2020/12/16 02:36:59;;;;;;;52.28;31.98;;;6.50;89.70;;;;;;2058620;28;21126;-78
2020/12/16 02:38:15;;;;;;;52.85;31.95;;;6.50;89.70;;;;;;2061269;28;20034;-80
2020/12/16 02:39:16;;;;;;;51.00;31.90;;;6.50;89.80;;;;;;2058814;28;20533;-79
2020/12/16 02:40:27;;;;;;;49.90;31.75;;;6.50;89.80;;;;;;2066617;28;20053;-80
2020/12/16 02:41:28;;;;;;;52.50;32.58;;;6.50;89.80;;;;;;2065646;28;20030;-78
2020/12/16 02:42:32;;;;;;;54.05;33.50;;;6.50;89.80;;;;;;2066862;28;20022;-78
2020/12/16 02:43:34;;;;;;;53.45;33.17;;;6.50;89.90;;;;;;2059216;28;20097;-79
2020/12/16 02:44:35;;;;;;;51.28;32.45;;;6.50;89.80;;;;;;2058934;28;20195;-78
2020/12/16 02:45:51;;;;;;;53.10;33.40;;;6.50;89.90;;;;;;2067486;28;20105;-79
2020/12/16 02:47:00;;;;;;;52.75;32.42;;;6.50;90.00;;;;;;2065142;28;20023;-79
2020/12/16 02:48:04;;;;;;;56.47;34.38;;;6.50;90.10;;;;;;2058010;28;20031;-78
2020/12/16 02:49:08;;;;;;;56.15;34.45;;;6.50;90.20;;;;;;2057832;28;20027;-78
2020/12/16 02:50:09;;;;;;;55.45;33.60;;;6.40;90.30;;;;;;2065610;28;20061;-79
2020/12/16 02:51:18;;;;;;;57.08;33.45;;;6.40;90.30;;;;;;2071782;28;20098;-78
2020/12/16 02:52:19;;;;;;;52.33;32.92;;;6.40;90.30;;;;;;2073128;28;20018;-78
2020/12/16 02:53:21;;;;;;;54.83;33.58;;;6.40;90.40;;;;;;2065153;28;20046;-80
2020/12/16 02:54:40;;;;;;;58.80;35.33;;;6.40;90.30;;;;;;2068489;28;20039;-78
2020/12/16 02:55:51;;;;;;;55.85;33.90;;;6.40;90.40;;;;;;2065255;28;20029;-78
2020/12/16 02:56:54;;;;;;;56.35;34.63;;;6.40;90.50;;;;;;2064121;28;20493;-78
2020/12/16 02:57:57;;;;;;;50.17;31.90;;;6.40;90.50;;;;;;2057892;28;20105;-78
2020/12/16 02:58:58;;;;;;;57.38;34.33;;;6.40;90.50;;;;;;2057220;28;20027;-81
2020/12/16 03:00:01;;;;;;;56.25;33.38;;;6.40;90.50;;;;;;2056733;28;20034;-79
2020/12/16 03:01:21;;;;;;;57.42;33.65;;;6.50;90.50;;;;;;2065306;28;20037;-79
2020/12/16 03:02:50;;;;;;;56.72;34.10;;;6.50;90.50;;;;;;2065271;28;20125;-80
2020/12/16 03:04:07;;;;;;;60.65;36.08;;;6.40;90.50;;;;;;2059327;28;20026;-80
2020/12/16 03:05:16;;;;;;;61.90;36.10;;;6.50;90.50;;;;;;2057710;28;20034;-78
2020/12/16 03:06:17;;;;;;;59.67;36.42;;;6.40;90.60;;;;;;2056234;28;20502;-77
2020/12/16 03:07:31;;;;;;;61.90;35.70;;;6.40;90.80;;;;;;2065975;28;20479;-78
2020/12/16 03:08:35;;;;;;;57.70;34.60;;;6.40;90.90;;;;;;2056260;28;20027;-78
2020/12/16 03:09:40;;;;;;;59.80;36.22;;;6.40;90.90;;;;;;2057832;28;20050;-76
2020/12/16 03:10:41;;;;;;;55.35;35.05;;;6.40;90.90;;;;;;2056306;28;20030;-76
2020/12/16 03:11:43;;;;;;;60.45;36.13;;;6.40;90.80;;;;;;2048746;28;20563;-79
2020/12/16 03:12:43;;;;;;;56.92;34.75;;;6.40;90.80;;;;;;2066153;28;20034;-78
2020/12/16 03:13:44;;;;;;;58.00;35.13;;;6.40;90.80;;;;;;2066037;28;20512;-79
2020/12/16 03:14:45;;;;;;;57.45;34.47;;;6.40;90.80;;;;;;2058653;28;20046;-77
2020/12/16 03:15:47;;;;;;;55.53;34.55;;;6.40;90.90;;;;;;2059747;28;20022;-79
2020/12/16 03:16:48;;;;;;;58.30;35.47;;;6.50;90.90;;;;;;2065966;28;20030;-77
2020/12/16 03:17:58;;;;;;;58.80;35.13;;;6.40;90.90;;;;;;2066302;28;20040;-79
2020/12/16 03:18:59;;;;;;;59.00;36.00;;;6.40;90.80;;;;;;2060319;28;20071;-78
2020/12/16 03:20:00;;;;;;;57.30;35.50;;;6.40;90.90;;;;;;2058771;28;20038;-76
2020/12/16 03:21:01;;;;;;;60.80;34.28;;;6.40;90.90;;;;;;2058140;28;20035;-77
2020/12/16 03:22:04;;;;;;;67.82;34.92;;;6.40;90.90;;;;;;2065778;28;20117;-78
2020/12/16 03:23:27;;;;;;;60.42;35.75;;;6.40;91.00;;;;;;2036659;29;20039;-78
2020/12/16 03:24:44;;;;;;;63.55;35.35;;;6.40;91.00;;;;;;2074054;28;20034;-78
2020/12/16 03:26:08;;;;;;;64.65;35.95;;;6.40;91.20;;;;;;2064419;28;20030;-78
2020/12/16 03:27:25;;;;;;;57.95;33.95;;;6.40;91.20;;;;;;2064564;28;20050;-78
2020/12/16 03:28:41;;;;;;;60.65;35.58;;;6.30;91.20;;;;;;2064541;28;20033;-78
2020/12/16 03:30:08;;;;;;;63.30;36.35;;;6.40;91.20;;;;;;2049922;28;20031;-77
2020/12/16 03:31:47;;;;;;;66.88;36.63;;;6.30;91.30;;;;;;2052586;28;20107;-77
2020/12/16 03:33:23;;;;;;;63.60;36.05;;;6.30;91.50;;;;;;2057807;28;20042;-79
2020/12/16 03:34:36;;;;;;;63.83;36.97;;;6.30;91.50;;;;;;2066534;28;20101;-77
2020/12/16 03:35:43;;;;;;;64.65;37.00;;;6.30;91.50;;;;;;2064299;28;20039;-77
2020/12/16 03:36:47;;;;;;;59.80;35.65;;;6.30;91.50;;;;;;2048569;28;20648;-76
2020/12/16 03:37:48;;;;;;;60.88;35.58;;;6.30;91.60;;;;;;2056712;28;20023;-77
2020/12/16 03:38:51;;;;;;;59.65;35.60;;;6.30;91.60;;;;;;2064186;28;20375;-77
2020/12/16 03:39:52;;;;;;;54.35;33.50;;;6.30;91.60;;;;;;2056612;28;20030;-78
2020/12/16 03:41:00;;;;;;;62.97;36.72;;;6.30;91.50;;;;;;2057887;28;20027;-77
2020/12/16 03:42:05;;;;;;;59.00;34.55;;;6.30;91.50;;;;;;2065448;28;20169;-77
2020/12/16 03:43:07;;;;;;;54.53;33.00;;;6.30;91.50;;;;;;2055881;28;20023;-78
2020/12/16 03:44:08;;;;;;;55.90;33.85;;;6.30;91.50;;;;;;2056314;28;20375;-77
2020/12/16 03:45:15;;;;;;;62.45;35.75;;;6.30;91.40;;;;;;2064196;28;20022;-79
2020/12/16 03:46:18;;;;;;;58.60;34.50;;;6.40;91.40;;;;;;2064191;28;20032;-77
2020/12/16 03:47:21;;;;;;;57.50;34.55;;;6.40;91.40;;;;;;2056660;28;20047;-77
2020/12/16 03:48:25;;;;;;;56.33;33.38;;;6.40;91.40;;;;;;2056500;28;20038;-76
2020/12/16 03:49:26;;;;;;;56.28;34.17;;;6.40;91.40;;;;;;2064102;28;20505;-77
2020/12/16 03:50:27;;;;;;;58.90;35.60;;;6.40;91.40;;;;;;2072506;28;20034;-76
2020/12/16 03:51:28;;;;;;;58.60;35.00;;;6.30;91.40;;;;;;2072035;28;20045;-77
2020/12/16 03:52:33;;;;;;;56.58;34.63;;;6.40;91.50;;;;;;2063904;28;20052;-78
2020/12/16 03:53:45;;;;;;;58.60;34.22;;;6.40;91.40;;;;;;2065542;28;20027;-77
2020/12/16 03:55:02;;;;;;;56.53;33.35;;;6.30;91.40;;;;;;2062803;28;20041;-77
2020/12/16 03:56:23;;;;;;;;;;;6.30;91.50;;;;;;2064020;28;20142;-78
2020/12/16 03:57:45;;;;;;;58.55;33.88;;;6.30;91.40;;;;;;2071761;28;19960;-76
2020/12/16 03:59:06;;;;;;;56.22;33.35;;;6.40;91.40;;;;;;2063801;28;20533;-77
2020/12/16 04:00:24;;;;;;;56.60;33.58;;;6.40;91.40;;;;;;2069230;28;20497;-77
2020/12/16 04:01:31;;;;;;;58.75;34.30;;;6.30;91.50;;;;;;2063747;28;20026;-77
2020/12/16 04:02:32;;;;;;;61.17;35.00;;;6.40;91.50;;;;;;2064664;28;20477;-77
2020/12/16 04:03:45;;;;;;;59.28;35.33;;;6.40;91.50;;;;;;2079049;28;20529;-79
2020/12/16 04:04:56;;;;;;;61.03;35.30;;;6.40;91.50;;;;;;2080881;28;20480;-76
2020/12/16 04:05:58;;;;;;;61.63;35.95;;;6.30;91.60;;;;;;2072242;28;20041;-78
2020/12/16 04:06:58;;;;;;;59.35;35.38;;;6.30;91.50;;;;;;2063491;28;20027;-77
2020/12/16 04:08:04;;;;;;;58.10;34.15;;;6.30;91.50;;;;;;2072635;28;20096;-78
2020/12/16 04:09:25;;;;;;;61.85;36.25;;;6.30;91.60;;;;;;2079162;28;20033;-77
2020/12/16 04:10:31;;;;;;;58.30;33.83;;;6.30;91.60;;;;;;2073645;28;20030;-79
2020/12/16 04:11:32;;;;;;;55.65;33.35;;;6.30;91.60;;;;;;2065204;28;20026;-77
2020/12/16 04:12:42;;;;;;;58.60;34.95;;;6.30;91.60;;;;;;2066545;28;20030;-77
2020/12/16 04:13:44;;;;;;;61.08;36.03;;;6.30;91.60;;;;;;2073323;28;20060;-79
2020/12/16 04:14:45;;;;;;;60.65;36.08;;;6.30;91.70;;;;;;2081602;28;20022;-77
2020/12/16 04:15:49;;;;;;;63.00;36.10;;;6.30;91.60;;;;;;2073279;28;20033;-76
2020/12/16 04:16:50;;;;;;;61.50;35.33;;;6.30;91.60;;;;;;2073443;28;20036;-78
2020/12/16 04:17:52;;;;;;;58.20;34.40;;;6.30;91.60;;;;;;2081670;28;20067;-77
2020/12/16 04:18:56;;;;;;;61.05;34.42;;;6.30;91.60;;;;;;2081274;28;20052;-77
2020/12/16 04:19:56;;;;;;;58.75;33.88;;;6.40;91.70;;;;;;2081672;28;20053;-77
2020/12/16 04:20:57;;;;;;;58.08;34.60;;;6.40;91.60;;;;;;2073240;28;20030;-76
2020/12/16 04:21:58;;;;;;;58.72;35.72;;;6.40;91.50;;;;;;2065056;28;20462;-77
2020/12/16 04:23:05;;;;;;;58.85;34.95;;;6.40;91.50;;;;;;2066181;28;20125;-78
2020/12/16 04:24:06;;;;;;;60.33;35.10;;;6.30;91.50;;;;;;2057331;28;20114;-78
2020/12/16 04:25:27;;;;;;;60.28;34.78;;;6.40;91.50;;;;;;2067758;28;20125;-77
2020/12/16 04:26:28;;;;;;;63.22;35.28;;;6.40;91.50;;;;;;2073329;28;20076;-77
2020/12/16 04:27:33;;;;;;;59.03;34.97;;;6.40;91.50;;;;;;2073533;28;20026;-76
2020/12/16 04:28:35;;;;;;;62.28;36.38;;;6.40;91.50;;;;;;2073228;28;20034;-76
2020/12/16 04:29:37;;;;;;;59.40;34.85;;;6.40;91.50;;;;;;2073418;28;20022;-76
2020/12/16 04:30:38;;;;;;;60.63;34.97;;;6.40;91.50;;;;;;2081271;28;20116;-76
2020/12/16 04:31:39;;;;;;;62.17;36.50;;;6.30;91.50;;;;;;2073272;28;20616;-76
2020/12/16 04:32:40;;;;;;;62.35;35.22;;;6.40;91.40;;;;;;2057101;28;20030;-77
2020/12/16 04:33:42;;;;;;;58.05;33.85;;;6.40;91.50;;;;;;2065391;28;20038;-76
2020/12/16 04:34:43;;;;;;;59.08;33.70;;;6.40;91.50;;;;;;2081422;28;20399;-77
2020/12/16 04:35:44;;;;;;;57.17;33.38;;;6.40;91.60;;;;;;2072906;28;20096;-76
2020/12/16 04:36:50;;;;;;;62.05;35.92;;;6.50;91.50;;;;;;2073283;28;20113;-76
2020/12/16 04:37:53;;;;;;;58.97;34.80;;;6.40;91.30;;;;;;2065197;28;20050;-77
2020/12/16 04:38:53;;;;;;;63.20;35.83;;;6.40;91.40;;;;;;2065576;28;20390;-77
2020/12/16 04:39:58;;;;;;;57.85;33.75;;;6.40;91.40;;;;;;2081473;28;20030;-77
2020/12/16 04:40:59;;;;;;;59.13;34.10;;;6.40;91.40;;;;;;2081248;28;20018;-77
2020/12/16 04:42:01;;;;;;;58.05;34.78;;;6.50;91.50;;;;;;2081479;28;20053;-77
2020/12/16 04:43:06;;;;;;;62.40;36.08;;;6.40;91.30;;;;;;2081421;28;20417;-76
2020/12/16 04:44:11;;;;;;;63.72;36.78;;;6.50;91.30;;;;;;2065298;28;20474;-76
2020/12/16 04:45:15;;;;;;;62.50;36.63;;;6.40;91.30;;;;;;2065818;28;20031;-76
2020/12/16 04:46:21;;;;;;;66.18;37.47;;;6.40;91.30;;;;;;2073546;28;20702;-76
2020/12/16 04:47:22;;;;;;;61.40;35.08;;;6.40;91.30;;;;;;2072788;28;20131;-76
2020/12/16 04:48:29;;;;;;;65.15;37.08;;;6.40;91.30;;;;;;2073853;28;20118;-76
2020/12/16 04:49:51;;;;;;;64.43;36.47;;;6.40;91.20;;;;;;2078774;28;20061;-75
2020/12/16 04:50:52;;;;;;;64.20;36.58;;;6.40;91.20;;;;;;2072992;28;20026;-76
2020/12/16 04:51:53;;;;;;;66.65;37.67;;;6.30;91.30;;;;;;2072957;28;20073;-78
2020/12/16 04:53:18;;;;;;;68.82;37.15;;;6.30;91.30;;;;;;2064608;28;20106;-78
2020/12/16 04:54:29;;;;;;;65.20;36.70;;;6.30;91.40;;;;;;2081255;28;20025;-78
2020/12/16 04:55:31;;;;;;;61.55;36.10;;;6.30;91.50;;;;;;2081153;28;20403;-78
2020/12/16 04:56:51;;;;;;;64.10;36.92;;;6.30;91.50;;;;;;2081613;28;20068;-77
2020/12/16 04:58:09;;;;;;;61.13;34.92;;;6.30;91.60;;;;;;2081445;28;20033;-78
2020/12/16 04:59:11;;;;;;;66.82;37.05;;;6.30;91.50;;;;;;2081240;28;20029;-77
2020/12/16 05:00:30;;;;;;;60.78;34.70;;;6.30;91.50;;;;;;2081207;28;20029;-78
2020/12/16 05:01:44;;;;;;;60.85;35.40;;;6.30;91.40;;;;;;2081651;28;20037;-78
2020/12/16 05:03:01;;;;;;;64.57;36.35;;;6.30;91.40;;;;;;2081185;28;20049;-77
2020/12/16 05:04:20;;;;;;;69.07;37.90;;;6.30;91.40;;;;;;2078354;28;20505;-77
2020/12/16 05:05:27;;;;;;;61.58;35.58;;;6.30;91.30;;;;;;2073189;28;20034;-77
2020/12/16 05:06:42;;;;;;;63.38;36.78;;;6.30;91.30;;;;;;2072965;28;20096;-77
2020/12/16 05:07:43;;;;;;;63.67;36.60;;;6.30;91.30;;;;;;2080883;28;20021;-77
2020/12/16 05:09:05;;;;;;;64.47;36.75;;;6.30;91.30;;;;;;2081617;28;20030;-78
2020/12/16 05:10:05;;;;;;;60.75;35.40;;;6.30;91.40;;;;;;2074178;28;20022;-78
2020/12/16 05:11:06;;;;;;;65.70;36.17;;;6.30;91.40;;;;;;2073950;28;20083;-78
2020/12/16 05:12:16;;;;;;;60.65;34.88;;;6.30;91.40;;;;;;2073836;28;20037;-78
2020/12/16 05:13:19;;;;;;;65.70;35.78;;;6.30;91.40;;;;;;2073672;28;20123;-77
2020/12/16 05:14:23;;;;;;;60.17;35.70;;;6.40;91.40;;;;;;2073524;28;20443;-77
2020/12/16 05:15:25;;;;;;;63.72;36.03;;;6.30;91.30;;;;;;2072629;28;20092;-77
2020/12/16 05:16:26;;;;;;;63.42;35.75;;;6.40;91.30;;;;;;2064638;28;20128;-78
2020/12/16 05:17:27;;;;;;;62.53;36.47;;;6.40;91.20;;;;;;2072667;28;20034;-77
2020/12/16 05:18:42;;;;;;;60.83;35.22;;;6.40;91.20;;;;;;2079487;28;20033;-77
2020/12/16 05:19:44;;;;;;;64.78;37.28;;;6.40;91.20;;;;;;2072867;28;20557;-76
2020/12/16 05:20:52;;;;;;;62.47;35.90;;;6.40;91.20;;;;;;2056978;28;20410;-77
2020/12/16 05:22:35;;;;;;;64.38;37.35;;;6.40;91.20;;;;;;2065836;28;20026;-76
2020/12/16 05:23:36;;;;;;;65.35;36.70;;;6.40;91.10;;;;;;2069066;28;20033;-76
2020/12/16 05:24:37;;;;;;;67.03;38.38;;;6.40;91.20;;;;;;2072936;28;20477;-77
2020/12/16 05:25:38;;;;;;;64.93;37.45;;;6.30;91.30;;;;;;2073468;28;20057;-77
2020/12/16 05:26:50;;;;;;;65.13;37.22;;;6.30;91.30;;;;;;2073540;28;20044;-77
2020/12/16 05:27:51;;;;;;;62.97;36.72;;;6.30;91.30;;;;;;2073565;28;20025;-77
2020/12/16 05:28:52;;;;;;;65.88;37.42;;;6.30;91.30;;;;;;2073454;28;20030;-76
2020/12/16 05:29:56;;;;;;;68.82;39.08;;;6.30;91.30;;;;;;2073253;28;20030;-77
2020/12/16 05:30:58;;;;;;;62.80;36.67;;;6.30;91.30;;;;;;2073278;28;20029;-77
2020/12/16 05:32:23;;;;;;;66.03;36.80;;;6.30;91.70;;;;;;2073300;28;20037;-76
2020/12/16 05:33:24;;;;;;;64.72;36.78;;;6.30;91.30;;;;;;2073492;28;20120;-77
2020/12/16 05:34:29;;;;;;;60.33;35.10;;;6.30;91.30;;;;;;2073457;28;20034;-76
2020/12/16 05:35:31;;;;;;;66.10;37.65;;;6.40;91.30;;;;;;2073718;28;20041;-77
2020/12/16 05:36:32;;;;;;;67.68;38.40;;;6.30;91.20;;;;;;2075560;28;20068;-76